WetterOnline ( https://www.wetteronline.de )

Wetter aktuell Hunding

Aktuelles Wetter: Fürstenzell (480m)

6-stündlich | Neueste Meldungen
Ortszeit Temperatur Wetter
Di, 16.07. 8:00 19.6° C leicht bewölkt
Di, 16.07. 2:00 22.1° C bewölkt
Mo, 15.07. 20:00 27.6° C wolkenlos
Mo, 15.07. 14:00 28.3° C wolkenlos
Mo, 15.07. 8:00 18.6° C leicht bewölkt
Mo, 15.07. 2:00 19.6° C bewölkt
So, 14.07. 20:00 23.4° C bewölkt
So, 14.07. 14:00 23.8° C fast wolkenlos
Ortszeit Temperatur Wetter
Di, 16.07. 13:00 21.9° C wolkig
Di, 16.07. 12:50 21.9° C wolkig
Di, 16.07. 12:40 21.9° C bedeckt
Di, 16.07. 12:30 21.0° C leichter Regen
Di, 16.07. 12:20 21.0° C leichter Regen
Di, 16.07. 12:10 20.7° C leichter Regen
Di, 16.07. 12:00 20.4° C bedeckt
Di, 16.07. 11:30 20.5° C wolkig
Di, 16.07. 11:00 20.9° C wolkig
Di, 16.07. 10:30 21.6° C bewölkt
Di, 16.07. 10:00 21.4° C wolkig
Ortszeit Relative Feuchte Sichtweite
Di, 16.07. 8:00 89% 30 km
Di, 16.07. 2:00 70% 45 km
Mo, 15.07. 20:00 46% 65 km
Mo, 15.07. 14:00 41% 40 km
Mo, 15.07. 8:00 87% 30 km
Mo, 15.07. 2:00 82% 30 km
So, 14.07. 20:00 61% 50 km
So, 14.07. 14:00 60% 40 km
Ortszeit Relative Feuchte Sichtweite
Di, 16.07. 13:00 74% 45 km
Di, 16.07. 12:50 74% -
Di, 16.07. 12:40 78% -
Di, 16.07. 12:30 80% 40 km
Di, 16.07. 12:20 80% -
Di, 16.07. 12:10 81% -
Di, 16.07. 12:00 82% 50 km
Di, 16.07. 11:30 82% 45 km
Di, 16.07. 11:00 79% 60 km
Di, 16.07. 10:30 77% 40 km
Di, 16.07. 10:00 78% 60 km
Ortszeit Niederschlagsmenge Niederschlagsart
Di, 16.07. 8:00 0.5 l/m2 in 12 Std. Regen
Di, 16.07. 2:00 0.0 l/m2 in 6 Std. -
Mo, 15.07. 20:00 0.0 l/m2 in 12 Std. -
Mo, 15.07. 14:00 0.0 l/m2 in 6 Std. -
Mo, 15.07. 8:00 0.2 l/m2 in 12 Std. -
Mo, 15.07. 2:00 0.2 l/m2 in 6 Std. Regen
So, 14.07. 20:00 0.0 l/m2 in 12 Std. -
So, 14.07. 14:00 0.0 l/m2 in 6 Std. -
Ortszeit Niederschlagsmenge Niederschlagsart
Di, 16.07. 13:00 <0.05 l/m2 in 1 Std. Regen
Di, 16.07. 12:50 keine Meldung -
Di, 16.07. 12:40 keine Meldung -
Di, 16.07. 12:30 <0.05 l/m2 in 30 Min -
Di, 16.07. 12:20 keine Meldung -
Di, 16.07. 12:10 keine Meldung -
Di, 16.07. 12:00 <0.05 l/m2 in 1 Std. Regen
Di, 16.07. 11:30 0.0 l/m2 in 30 Min -
Di, 16.07. 11:00 <0.05 l/m2 in 1 Std. Regen
Di, 16.07. 10:30 0.0 l/m2 in 30 Min -
Di, 16.07. 10:00 <0.05 l/m2 in 1 Std. Sprühregen
Ortszeit Stärke Spitze Richtung
km/h Bft. km/h Grad Sektor
Di, 16.07. 8:00 9 2 59 240° SW
Di, 16.07. 2:00 7 2 14 60° NO
Mo, 15.07. 20:00 9 2 20 120° SO
Mo, 15.07. 14:00 7 2 18 130° SO
Mo, 15.07. 8:00 7 2 11 50° NO
Mo, 15.07. 2:00 4 1 11 130° SO
So, 14.07. 20:00 2 1 15 140° SO
So, 14.07. 14:00 7 2 14 240° SW
Ortszeit Stärke Spitze Richtung
km/h Bft. km/h Grad Sektor
Di, 16.07. 13:00 7 2 18 250° W
Di, 16.07. 12:50 7 2 - 250° W
Di, 16.07. 12:40 4 1 - 270° W
Di, 16.07. 12:30 4 1 11 240° SW
Di, 16.07. 12:20 4 1 - 240° SW
Di, 16.07. 12:10 6 1 - 270° W
Di, 16.07. 12:00 7 2 32 270° W
Di, 16.07. 11:30 11 2 33 270° W
Di, 16.07. 11:00 18 3 32 260° W
Di, 16.07. 10:30 14 3 25 250° W
Di, 16.07. 10:00 13 3 22 250° W
Ortszeit Untergrenze Bedeckung Gattung
total tief tief mittel hoch
Di, 16.07. 8:00 1500 m 5/8 2/8 - - -
Di, 16.07. 2:00 3900 m 7/8 7/8 - - -
Mo, 15.07. 20:00 - 0/8 0/8 - - -
Mo, 15.07. 14:00 - 0/8 0/8 - - -
Mo, 15.07. 8:00 9000 m 8/8 0/8 - - -
Mo, 15.07. 2:00 4500 m 8/8 7/8 - - -
So, 14.07. 20:00 6000 m 8/8 6/8 - - -
So, 14.07. 14:00 930 m 1/8 1/8 - - -
Ortszeit Bedeckungsgrad in Achtel und Wolkenuntergrenze
Di, 16.07. 13:00 2(540m) 7(3600m) 7(4200m)
Di, 16.07. 12:50 2(540m) 7(3600m) 7(4200m)
Di, 16.07. 12:40 8
Di, 16.07. 12:30 2(2100m) 8(3300m) 8(3900m)
Di, 16.07. 12:20 2(2100m) 8(3300m) 8(3900m)
Di, 16.07. 12:10 8
Di, 16.07. 12:00 8(3300m)
Di, 16.07. 11:30 2(450m) 8(3300m) 8(3900m)
Di, 16.07. 11:00 3(540m) 8(4200m) 8(4800m)
Di, 16.07. 10:30 6(600m) 7(3900m) 8(4500m)
Di, 16.07. 10:00 1(570m) 6(3900m) 8(4500m)
Ortszeit Luftdruck NN (hPa) Tendenz (hPa in 3 Std.)
Di, 16.07. 8:00 1014 + 1,5
Di, 16.07. 2:00 1009 - 0,7
Mo, 15.07. 20:00 1009 - 1,2
Mo, 15.07. 14:00 1012 - 1,0
Mo, 15.07. 8:00 1015 0,0
Mo, 15.07. 2:00 1015 - 0,1
So, 14.07. 20:00 1013 + 0,4
So, 14.07. 14:00 1013 - 0,2
Ortszeit Luftdruck NN (hPa) Tendenz (hPa in 3 Std.)
Di, 16.07. 13:00 1015 + 0,3
Di, 16.07. 12:50 1015 keine Meldung
Di, 16.07. 12:40 1015 keine Meldung
Di, 16.07. 12:30 1015 + 0,2
Di, 16.07. 12:20 1015 keine Meldung
Di, 16.07. 12:10 1015 keine Meldung
Di, 16.07. 12:00 1015 + 0,5
Di, 16.07. 11:30 1015 + 0,9
Di, 16.07. 11:00 1015 + 1,2
Di, 16.07. 10:30 1015 + 1,4
Di, 16.07. 10:00 1015 + 1,5
Ortszeit Schneehöhe (cm)
Di, 16.07. 8:00 0
Di, 16.07. 2:00 0
Mo, 15.07. 20:00 0
Mo, 15.07. 14:00 0
Mo, 15.07. 8:00 0
Mo, 15.07. 2:00 0
So, 14.07. 20:00 0
So, 14.07. 14:00 0
Ortszeit Schneehöhe (cm)
Di, 16.07. 13:00 0
Di, 16.07. 12:50 0
Di, 16.07. 12:40 -
Di, 16.07. 12:30 0
Di, 16.07. 12:20 0
Di, 16.07. 12:10 -
Di, 16.07. 12:00 0
Di, 16.07. 11:30 0
Di, 16.07. 11:00 0
Di, 16.07. 10:30 0
Di, 16.07. 10:00 0
Link zu dieser Seite / Seite empfehlen

Das Wetter in ...